sensor_id;sensor_type;location;lat;lon;timestamp;pressure;altitude;pressure_sealevel;temperature;humidity
12219;BME280;6172;42.646;23.344;2024-01-15T00:01:21;94033.56;;;-3.10;100.00
12219;BME280;6172;42.646;23.344;2024-01-15T00:03:50;94019.63;;;-3.34;100.00
12219;BME280;6172;42.646;23.344;2024-01-15T00:06:18;94023.75;;;-3.37;100.00
12219;BME280;6172;42.646;23.344;2024-01-15T00:08:46;94020.16;;;-3.56;100.00
12219;BME280;6172;42.646;23.344;2024-01-15T00:11:13;94028.34;;;-3.49;100.00
12219;BME280;6172;42.646;23.344;2024-01-15T00:13:44;94013.72;;;-3.55;100.00
12219;BME280;6172;42.646;23.344;2024-01-15T00:16:14;94015.28;;;-3.54;100.00
12219;BME280;6172;42.646;23.344;2024-01-15T00:18:42;94018.06;;;-3.35;100.00
12219;BME280;6172;42.646;23.344;2024-01-15T00:21:10;94021.75;;;-3.40;100.00
12219;BME280;6172;42.646;23.344;2024-01-15T00:23:42;94018.84;;;-3.35;100.00
12219;BME280;6172;42.646;23.344;2024-01-15T00:26:10;94026.47;;;-3.49;100.00
12219;BME280;6172;42.646;23.344;2024-01-15T00:28:37;94028.84;;;-3.87;100.00
12219;BME280;6172;42.646;23.344;2024-01-15T00:31:07;94025.63;;;-3.80;100.00
12219;BME280;6172;42.646;23.344;2024-01-15T00:33:35;94024.28;;;-3.59;100.00
12219;BME280;6172;42.646;23.344;2024-01-15T00:36:02;94009.44;;;-3.60;100.00
12219;BME280;6172;42.646;23.344;2024-01-15T00:38:30;94025.41;;;-3.60;100.00
12219;BME280;6172;42.646;23.344;2024-01-15T00:40:57;94029.28;;;-3.57;100.00
12219;BME280;6172;42.646;23.344;2024-01-15T00:43:26;94024.16;;;-3.78;100.00
12219;BME280;6172;42.646;23.344;2024-01-15T00:45:54;94028.75;;;-3.63;100.00
12219;BME280;6172;42.646;23.344;2024-01-15T00:48:23;94033.00;;;-3.74;100.00
12219;BME280;6172;42.646;23.344;2024-01-15T00:50:51;94025.81;;;-3.73;100.00
12219;BME280;6172;42.646;23.344;2024-01-15T00:53:19;94016.34;;;-3.71;100.00
12219;BME280;6172;42.646;23.344;2024-01-15T00:55:48;94022.56;;;-3.67;100.00
12219;BME280;6172;42.646;23.344;2024-01-15T00:58:15;94007.53;;;-3.59;100.00
12219;BME280;6172;42.646;23.344;2024-01-15T01:00:43;94018.78;;;-3.66;100.00
12219;BME280;6172;42.646;23.344;2024-01-15T01:03:10;94023.19;;;-3.58;100.00
12219;BME280;6172;42.646;23.344;2024-01-15T01:05:40;94019.84;;;-3.55;100.00
12219;BME280;6172;42.646;23.344;2024-01-15T01:08:07;94024.28;;;-3.74;100.00
12219;BME280;6172;42.646;23.344;2024-01-15T01:10:35;94025.28;;;-3.79;100.00
12219;BME280;6172;42.646;23.344;2024-01-15T01:13:02;94031.47;;;-3.75;100.00
12219;BME280;6172;42.646;23.344;2024-01-15T01:15:29;94017.59;;;-3.68;100.00
12219;BME280;6172;42.646;23.344;2024-01-15T01:17:56;94016.78;;;-3.84;100.00
12219;BME280;6172;42.646;23.344;2024-01-15T01:20:24;94021.34;;;-3.69;100.00
12219;BME280;6172;42.646;23.344;2024-01-15T01:22:52;94024.19;;;-3.62;100.00
12219;BME280;6172;42.646;23.344;2024-01-15T01:25:19;94009.25;;;-3.67;100.00
12219;BME280;6172;42.646;23.344;2024-01-15T01:27:46;94008.31;;;-3.59;100.00
12219;BME280;6172;42.646;23.344;2024-01-15T01:30:13;94003.97;;;-3.51;100.00
12219;BME280;6172;42.646;23.344;2024-01-15T01:32:40;93990.88;;;-3.56;100.00
12219;BME280;6172;42.646;23.344;2024-01-15T01:35:08;93998.53;;;-3.55;100.00
12219;BME280;6172;42.646;23.344;2024-01-15T01:37:35;94001.94;;;-3.70;100.00
12219;BME280;6172;42.646;23.344;2024-01-15T01:40:05;93988.19;;;-3.72;100.00
12219;BME280;6172;42.646;23.344;2024-01-15T01:42:32;93988.31;;;-3.53;100.00
12219;BME280;6172;42.646;23.344;2024-01-15T01:44:59;93986.56;;;-3.61;100.00
12219;BME280;6172;42.646;23.344;2024-01-15T01:47:26;93997.16;;;-3.49;100.00
12219;BME280;6172;42.646;23.344;2024-01-15T01:49:56;93991.97;;;-3.73;100.00
12219;BME280;6172;42.646;23.344;2024-01-15T01:52:23;94001.16;;;-3.70;100.00
12219;BME280;6172;42.646;23.344;2024-01-15T01:54:51;94003.59;;;-4.21;100.00
12219;BME280;6172;42.646;23.344;2024-01-15T01:57:21;94002.31;;;-3.99;100.00
12219;BME280;6172;42.646;23.344;2024-01-15T01:59:48;93987.03;;;-3.86;100.00
12219;BME280;6172;42.646;23.344;2024-01-15T02:02:16;93983.28;;;-4.13;100.00
12219;BME280;6172;42.646;23.344;2024-01-15T02:04:44;93979.50;;;-4.52;100.00
12219;BME280;6172;42.646;23.344;2024-01-15T02:07:30;93984.63;;;-4.19;100.00
12219;BME280;6172;42.646;23.344;2024-01-15T02:09:57;93991.88;;;-4.04;100.00
12219;BME280;6172;42.646;23.344;2024-01-15T02:12:26;93977.34;;;-3.94;100.00
12219;BME280;6172;42.646;23.344;2024-01-15T02:14:53;93979.06;;;-3.86;100.00
12219;BME280;6172;42.646;23.344;2024-01-15T02:17:21;93975.56;;;-3.75;100.00
12219;BME280;6172;42.646;23.344;2024-01-15T02:19:49;93958.94;;;-3.99;100.00
12219;BME280;6172;42.646;23.344;2024-01-15T02:22:16;93955.97;;;-3.82;100.00
12219;BME280;6172;42.646;23.344;2024-01-15T02:24:45;93955.28;;;-3.79;100.00
12219;BME280;6172;42.646;23.344;2024-01-15T02:27:12;93940.69;;;-3.85;100.00
12219;BME280;6172;42.646;23.344;2024-01-15T02:29:40;93925.50;;;-3.85;100.00
12219;BME280;6172;42.646;23.344;2024-01-15T02:32:08;93911.66;;;-4.34;100.00
12219;BME280;6172;42.646;23.344;2024-01-15T02:34:36;93911.25;;;-4.20;100.00
12219;BME280;6172;42.646;23.344;2024-01-15T02:37:03;93918.50;;;-4.05;100.00
12219;BME280;6172;42.646;23.344;2024-01-15T02:39:30;93921.69;;;-3.99;100.00
12219;BME280;6172;42.646;23.344;2024-01-15T02:41:59;93919.31;;;-3.89;100.00
12219;BME280;6172;42.646;23.344;2024-01-15T02:44:26;93909.69;;;-3.78;100.00
12219;BME280;6172;42.646;23.344;2024-01-15T02:46:55;93901.53;;;-3.69;100.00
12219;BME280;6172;42.646;23.344;2024-01-15T02:49:23;93906.00;;;-3.58;100.00
12219;BME280;6172;42.646;23.344;2024-01-15T02:51:50;93906.72;;;-3.45;100.00
12219;BME280;6172;42.646;23.344;2024-01-15T02:54:17;93910.22;;;-3.41;100.00
12219;BME280;6172;42.646;23.344;2024-01-15T02:56:44;93906.25;;;-3.32;100.00
12219;BME280;6172;42.646;23.344;2024-01-15T02:59:13;93908.91;;;-3.16;100.00
12219;BME280;6172;42.646;23.344;2024-01-15T03:01:40;93904.00;;;-3.14;100.00
12219;BME280;6172;42.646;23.344;2024-01-15T03:04:07;93906.28;;;-2.97;100.00
12219;BME280;6172;42.646;23.344;2024-01-15T03:06:34;93903.88;;;-2.87;100.00
12219;BME280;6172;42.646;23.344;2024-01-15T03:09:01;93906.84;;;-2.73;100.00
12219;BME280;6172;42.646;23.344;2024-01-15T03:11:29;93885.50;;;-2.73;100.00
12219;BME280;6172;42.646;23.344;2024-01-15T03:13:56;93897.25;;;-2.58;100.00
12219;BME280;6172;42.646;23.344;2024-01-15T03:16:24;93884.47;;;-2.68;100.00
12219;BME280;6172;42.646;23.344;2024-01-15T03:18:51;93894.00;;;-2.67;100.00
12219;BME280;6172;42.646;23.344;2024-01-15T03:21:19;93896.63;;;-2.86;100.00
12219;BME280;6172;42.646;23.344;2024-01-15T03:23:46;93893.91;;;-2.90;100.00
12219;BME280;6172;42.646;23.344;2024-01-15T03:26:13;93883.13;;;-3.28;100.00
12219;BME280;6172;42.646;23.344;2024-01-15T03:28:41;93888.81;;;-3.29;100.00
12219;BME280;6172;42.646;23.344;2024-01-15T03:31:08;93878.91;;;-3.13;100.00
12219;BME280;6172;42.646;23.344;2024-01-15T03:33:36;93871.38;;;-3.58;100.00
12219;BME280;6172;42.646;23.344;2024-01-15T03:36:04;93866.94;;;-3.85;100.00
12219;BME280;6172;42.646;23.344;2024-01-15T03:38:31;93898.81;;;-3.88;100.00
12219;BME280;6172;42.646;23.344;2024-01-15T03:40:58;93869.25;;;-3.99;100.00
12219;BME280;6172;42.646;23.344;2024-01-15T03:43:27;93865.81;;;-3.99;100.00
12219;BME280;6172;42.646;23.344;2024-01-15T03:45:54;93905.81;;;-3.96;100.00
12219;BME280;6172;42.646;23.344;2024-01-15T03:48:21;93874.94;;;-4.28;100.00
12219;BME280;6172;42.646;23.344;2024-01-15T03:50:50;93892.28;;;-4.19;100.00
12219;BME280;6172;42.646;23.344;2024-01-15T03:53:17;93882.25;;;-4.25;100.00
12219;BME280;6172;42.646;23.344;2024-01-15T03:55:44;93894.09;;;-4.23;100.00
12219;BME280;6172;42.646;23.344;2024-01-15T03:58:12;93888.28;;;-4.13;100.00
12219;BME280;6172;42.646;23.344;2024-01-15T04:00:40;93893.53;;;-4.00;100.00
12219;BME280;6172;42.646;23.344;2024-01-15T04:03:07;93892.59;;;-3.92;100.00
12219;BME280;6172;42.646;23.344;2024-01-15T04:05:34;93886.59;;;-3.89;100.00
12219;BME280;6172;42.646;23.344;2024-01-15T04:08:03;93862.41;;;-3.84;100.00
12219;BME280;6172;42.646;23.344;2024-01-15T04:10:31;93863.41;;;-4.04;100.00
12219;BME280;6172;42.646;23.344;2024-01-15T04:12:59;93868.25;;;-4.38;100.00
12219;BME280;6172;42.646;23.344;2024-01-15T04:15:27;93861.31;;;-4.27;100.00
12219;BME280;6172;42.646;23.344;2024-01-15T04:17:54;93866.41;;;-4.06;100.00
12219;BME280;6172;42.646;23.344;2024-01-15T04:20:21;93865.06;;;-4.00;100.00
12219;BME280;6172;42.646;23.344;2024-01-15T04:22:48;93854.56;;;-3.93;100.00
12219;BME280;6172;42.646;23.344;2024-01-15T04:25:17;93861.16;;;-4.02;100.00
12219;BME280;6172;42.646;23.344;2024-01-15T04:27:44;93870.78;;;-3.98;100.00
12219;BME280;6172;42.646;23.344;2024-01-15T04:30:11;93865.72;;;-4.03;100.00
12219;BME280;6172;42.646;23.344;2024-01-15T04:32:39;93876.44;;;-4.70;100.00
12219;BME280;6172;42.646;23.344;2024-01-15T04:35:06;93872.53;;;-4.88;100.00
12219;BME280;6172;42.646;23.344;2024-01-15T04:37:33;93879.09;;;-4.70;100.00
12219;BME280;6172;42.646;23.344;2024-01-15T04:40:01;93873.31;;;-4.60;100.00
12219;BME280;6172;42.646;23.344;2024-01-15T04:42:31;93867.13;;;-4.64;100.00
12219;BME280;6172;42.646;23.344;2024-01-15T04:44:58;93874.13;;;-5.11;100.00
12219;BME280;6172;42.646;23.344;2024-01-15T04:47:25;93865.69;;;-5.01;100.00
12219;BME280;6172;42.646;23.344;2024-01-15T04:49:52;93866.03;;;-5.03;100.00
12219;BME280;6172;42.646;23.344;2024-01-15T04:52:21;93865.09;;;-4.95;100.00
12219;BME280;6172;42.646;23.344;2024-01-15T04:54:49;93867.91;;;-5.03;100.00
12219;BME280;6172;42.646;23.344;2024-01-15T04:57:16;93851.94;;;-4.91;100.00
12219;BME280;6172;42.646;23.344;2024-01-15T04:59:44;93856.41;;;-4.68;100.00
12219;BME280;6172;42.646;23.344;2024-01-15T05:02:12;93841.22;;;-4.67;100.00
12219;BME280;6172;42.646;23.344;2024-01-15T05:04:39;93849.34;;;-4.48;100.00
12219;BME280;6172;42.646;23.344;2024-01-15T05:07:06;93852.19;;;-4.41;100.00
12219;BME280;6172;42.646;23.344;2024-01-15T05:09:34;93844.19;;;-4.41;100.00
12219;BME280;6172;42.646;23.344;2024-01-15T05:12:01;93833.66;;;-4.38;100.00
12219;BME280;6172;42.646;23.344;2024-01-15T05:14:29;93818.41;;;-4.25;100.00
12219;BME280;6172;42.646;23.344;2024-01-15T05:16:57;93820.31;;;-4.53;100.00
12219;BME280;6172;42.646;23.344;2024-01-15T05:19:25;93816.50;;;-4.40;100.00
12219;BME280;6172;42.646;23.344;2024-01-15T05:21:52;93816.56;;;-4.52;100.00
12219;BME280;6172;42.646;23.344;2024-01-15T05:24:19;93846.31;;;-4.62;100.00
12219;BME280;6172;42.646;23.344;2024-01-15T05:26:46;93832.59;;;-4.49;100.00
12219;BME280;6172;42.646;23.344;2024-01-15T05:29:15;93828.59;;;-4.70;100.00
12219;BME280;6172;42.646;23.344;2024-01-15T05:31:43;93835.22;;;-4.64;100.00
12219;BME280;6172;42.646;23.344;2024-01-15T05:34:12;93833.03;;;-4.47;100.00
12219;BME280;6172;42.646;23.344;2024-01-15T05:36:39;93842.47;;;-4.49;100.00
12219;BME280;6172;42.646;23.344;2024-01-15T05:39:08;93825.75;;;-4.50;100.00
12219;BME280;6172;42.646;23.344;2024-01-15T05:41:35;93834.16;;;-4.48;100.00
12219;BME280;6172;42.646;23.344;2024-01-15T05:44:03;93821.88;;;-4.52;100.00
12219;BME280;6172;42.646;23.344;2024-01-15T05:46:30;93836.03;;;-4.48;100.00
12219;BME280;6172;42.646;23.344;2024-01-15T05:48:57;93825.56;;;-4.57;100.00
12219;BME280;6172;42.646;23.344;2024-01-15T05:51:26;93811.59;;;-4.54;100.00
12219;BME280;6172;42.646;23.344;2024-01-15T05:53:53;93811.72;;;-4.35;100.00
12219;BME280;6172;42.646;23.344;2024-01-15T05:56:21;93808.56;;;-4.25;100.00
12219;BME280;6172;42.646;23.344;2024-01-15T05:58:49;93806.47;;;-4.31;100.00
12219;BME280;6172;42.646;23.344;2024-01-15T06:01:16;93813.44;;;-4.11;100.00
12219;BME280;6172;42.646;23.344;2024-01-15T06:03:44;93820.91;;;-4.17;100.00
12219;BME280;6172;42.646;23.344;2024-01-15T06:06:11;93822.81;;;-4.01;100.00
12219;BME280;6172;42.646;23.344;2024-01-15T06:08:42;93827.78;;;-4.00;100.00
12219;BME280;6172;42.646;23.344;2024-01-15T06:11:10;93820.06;;;-4.05;100.00
12219;BME280;6172;42.646;23.344;2024-01-15T06:13:37;93822.72;;;-3.89;100.00
12219;BME280;6172;42.646;23.344;2024-01-15T06:16:13;93816.03;;;-3.83;100.00
12219;BME280;6172;42.646;23.344;2024-01-15T06:18:40;93804.19;;;-4.01;100.00
12219;BME280;6172;42.646;23.344;2024-01-15T06:21:07;93815.84;;;-4.22;100.00
12219;BME280;6172;42.646;23.344;2024-01-15T06:23:37;93818.25;;;-4.01;100.00
12219;BME280;6172;42.646;23.344;2024-01-15T06:26:05;93821.88;;;-4.09;100.00
12219;BME280;6172;42.646;23.344;2024-01-15T06:28:32;93819.53;;;-3.95;100.00
12219;BME280;6172;42.646;23.344;2024-01-15T06:31:02;93804.66;;;-4.27;100.00
12219;BME280;6172;42.646;23.344;2024-01-15T06:33:29;93809.06;;;-4.35;100.00
12219;BME280;6172;42.646;23.344;2024-01-15T06:35:58;93816.53;;;-4.09;100.00
12219;BME280;6172;42.646;23.344;2024-01-15T06:38:25;93810.72;;;-3.99;100.00
12219;BME280;6172;42.646;23.344;2024-01-15T06:40:52;93817.22;;;-3.96;100.00
12219;BME280;6172;42.646;23.344;2024-01-15T06:43:21;93819.63;;;-3.91;100.00
12219;BME280;6172;42.646;23.344;2024-01-15T06:45:48;93828.56;;;-3.68;100.00
12219;BME280;6172;42.646;23.344;2024-01-15T06:48:18;93819.38;;;-3.36;100.00
12219;BME280;6172;42.646;23.344;2024-01-15T06:50:45;93816.91;;;-3.10;100.00
12219;BME280;6172;42.646;23.344;2024-01-15T06:53:12;93822.94;;;-3.13;100.00
12219;BME280;6172;42.646;23.344;2024-01-15T06:55:40;93831.16;;;-3.03;100.00
12219;BME280;6172;42.646;23.344;2024-01-15T06:58:07;93821.78;;;-2.97;100.00
12219;BME280;6172;42.646;23.344;2024-01-15T07:00:35;93807.84;;;-3.25;100.00
12219;BME280;6172;42.646;23.344;2024-01-15T07:03:03;93825.72;;;-2.91;100.00
12219;BME280;6172;42.646;23.344;2024-01-15T07:05:30;93820.81;;;-2.70;100.00
12219;BME280;6172;42.646;23.344;2024-01-15T07:07:57;93828.31;;;-2.75;100.00
12219;BME280;6172;42.646;23.344;2024-01-15T07:10:24;93837.72;;;-2.81;100.00
12219;BME280;6172;42.646;23.344;2024-01-15T07:12:52;93829.03;;;-2.78;100.00
12219;BME280;6172;42.646;23.344;2024-01-15T07:15:19;93830.63;;;-2.74;100.00
12219;BME280;6172;42.646;23.344;2024-01-15T07:17:48;93828.78;;;-2.89;100.00
12219;BME280;6172;42.646;23.344;2024-01-15T07:20:15;93837.50;;;-2.73;100.00
12219;BME280;6172;42.646;23.344;2024-01-15T07:22:44;93831.19;;;-2.65;100.00
12219;BME280;6172;42.646;23.344;2024-01-15T07:25:11;93820.88;;;-2.47;100.00
12219;BME280;6172;42.646;23.344;2024-01-15T07:27:38;93813.13;;;-2.33;100.00
12219;BME280;6172;42.646;23.344;2024-01-15T07:30:08;93817.78;;;-2.49;100.00
12219;BME280;6172;42.646;23.344;2024-01-15T07:32:36;93805.34;;;-2.42;100.00
12219;BME280;6172;42.646;23.344;2024-01-15T07:35:05;93808.75;;;-2.64;100.00
12219;BME280;6172;42.646;23.344;2024-01-15T07:37:32;93815.53;;;-2.47;100.00
12219;BME280;6172;42.646;23.344;2024-01-15T07:39:59;93800.50;;;-2.36;100.00
12219;BME280;6172;42.646;23.344;2024-01-15T07:42:26;93817.09;;;-2.65;100.00
12219;BME280;6172;42.646;23.344;2024-01-15T07:44:53;93815.75;;;-2.56;100.00
12219;BME280;6172;42.646;23.344;2024-01-15T07:47:20;93829.66;;;-2.47;100.00
12219;BME280;6172;42.646;23.344;2024-01-15T07:49:48;93834.97;;;-2.47;100.00
12219;BME280;6172;42.646;23.344;2024-01-15T07:52:16;93832.44;;;-2.59;100.00
12219;BME280;6172;42.646;23.344;2024-01-15T07:54:43;93824.53;;;-2.55;100.00
12219;BME280;6172;42.646;23.344;2024-01-15T07:57:10;93834.81;;;-2.35;100.00
12219;BME280;6172;42.646;23.344;2024-01-15T07:59:37;93820.38;;;-2.72;100.00
12219;BME280;6172;42.646;23.344;2024-01-15T08:02:05;93830.34;;;-2.50;100.00
12219;BME280;6172;42.646;23.344;2024-01-15T08:04:32;93803.19;;;-2.36;100.00
12219;BME280;6172;42.646;23.344;2024-01-15T08:07:00;93785.38;;;-2.29;100.00
12219;BME280;6172;42.646;23.344;2024-01-15T08:09:30;93792.75;;;-2.22;100.00
12219;BME280;6172;42.646;23.344;2024-01-15T08:11:57;93804.72;;;-2.13;100.00
12219;BME280;6172;42.646;23.344;2024-01-15T08:14:24;93787.09;;;-2.59;100.00
12219;BME280;6172;42.646;23.344;2024-01-15T08:16:51;93803.31;;;-2.29;100.00
12219;BME280;6172;42.646;23.344;2024-01-15T08:19:18;93805.44;;;-2.16;100.00
12219;BME280;6172;42.646;23.344;2024-01-15T08:21:45;93803.78;;;-2.01;100.00
12219;BME280;6172;42.646;23.344;2024-01-15T08:24:14;93819.78;;;-1.79;100.00
12219;BME280;6172;42.646;23.344;2024-01-15T08:26:43;93824.06;;;-1.74;100.00
12219;BME280;6172;42.646;23.344;2024-01-15T08:29:10;93801.00;;;-1.63;100.00
12219;BME280;6172;42.646;23.344;2024-01-15T08:31:38;93799.44;;;-1.38;100.00
12219;BME280;6172;42.646;23.344;2024-01-15T08:34:05;93797.59;;;-1.34;100.00
12219;BME280;6172;42.646;23.344;2024-01-15T08:36:32;93787.25;;;-1.35;100.00
12219;BME280;6172;42.646;23.344;2024-01-15T08:39:01;93791.97;;;-1.25;100.00
12219;BME280;6172;42.646;23.344;2024-01-15T08:41:31;93780.06;;;-1.05;100.00
12219;BME280;6172;42.646;23.344;2024-01-15T08:43:59;93773.25;;;-0.70;100.00
12219;BME280;6172;42.646;23.344;2024-01-15T08:46:27;93768.81;;;-0.19;100.00
12219;BME280;6172;42.646;23.344;2024-01-15T08:48:54;93778.88;;;-0.09;100.00
12219;BME280;6172;42.646;23.344;2024-01-15T08:51:21;93749.75;;;-0.14;100.00
12219;BME280;6172;42.646;23.344;2024-01-15T08:53:48;93758.84;;;-0.22;100.00
12219;BME280;6172;42.646;23.344;2024-01-15T08:56:15;93764.47;;;0.06;100.00
12219;BME280;6172;42.646;23.344;2024-01-15T08:58:42;93774.09;;;0.11;100.00
12219;BME280;6172;42.646;23.344;2024-01-15T09:01:10;93759.06;;;0.03;100.00
12219;BME280;6172;42.646;23.344;2024-01-15T09:03:37;93763.84;;;0.23;100.00
12219;BME280;6172;42.646;23.344;2024-01-15T09:06:05;93734.59;;;0.04;100.00
12219;BME280;6172;42.646;23.344;2024-01-15T09:08:32;93745.50;;;0.25;100.00
12219;BME280;6172;42.646;23.344;2024-01-15T09:10:59;93737.72;;;0.10;100.00
12219;BME280;6172;42.646;23.344;2024-01-15T09:13:28;93708.75;;;0.22;100.00
12219;BME280;6172;42.646;23.344;2024-01-15T09:15:55;93718.41;;;0.34;100.00
12219;BME280;6172;42.646;23.344;2024-01-15T09:18:24;93697.97;;;0.15;100.00
12219;BME280;6172;42.646;23.344;2024-01-15T09:20:51;93697.63;;;0.20;100.00
12219;BME280;6172;42.646;23.344;2024-01-15T09:23:18;93680.50;;;0.39;100.00
12219;BME280;6172;42.646;23.344;2024-01-15T09:25:45;93682.13;;;0.47;100.00
12219;BME280;6172;42.646;23.344;2024-01-15T09:28:13;93684.47;;;0.55;100.00
12219;BME280;6172;42.646;23.344;2024-01-15T09:30:40;93680.31;;;0.72;100.00
12219;BME280;6172;42.646;23.344;2024-01-15T09:33:07;93684.84;;;0.57;100.00
12219;BME280;6172;42.646;23.344;2024-01-15T09:35:36;93690.56;;;0.56;100.00
12219;BME280;6172;42.646;23.344;2024-01-15T09:38:04;93669.91;;;0.60;100.00
12219;BME280;6172;42.646;23.344;2024-01-15T09:40:31;93674.63;;;0.16;100.00
12219;BME280;6172;42.646;23.344;2024-01-15T09:42:59;93671.31;;;0.40;100.00
12219;BME280;6172;42.646;23.344;2024-01-15T09:45:27;93672.84;;;0.34;100.00
12219;BME280;6172;42.646;23.344;2024-01-15T09:47:54;93662.16;;;0.44;100.00
12219;BME280;6172;42.646;23.344;2024-01-15T09:50:22;93643.78;;;0.43;100.00
12219;BME280;6172;42.646;23.344;2024-01-15T09:52:51;93635.03;;;0.53;100.00
12219;BME280;6172;42.646;23.344;2024-01-15T09:55:19;93610.28;;;-0.42;100.00
12219;BME280;6172;42.646;23.344;2024-01-15T09:57:46;93630.69;;;-0.27;100.00
12219;BME280;6172;42.646;23.344;2024-01-15T10:00:17;93628.06;;;-0.20;100.00
12219;BME280;6172;42.646;23.344;2024-01-15T10:02:45;93625.53;;;-0.02;100.00
12219;BME280;6172;42.646;23.344;2024-01-15T10:05:12;93608.53;;;-0.20;100.00
12219;BME280;6172;42.646;23.344;2024-01-15T10:07:40;93631.19;;;-0.11;100.00
12219;BME280;6172;42.646;23.344;2024-01-15T10:10:10;93627.91;;;-0.37;100.00
12219;BME280;6172;42.646;23.344;2024-01-15T10:12:39;93638.72;;;-0.23;100.00
12219;BME280;6172;42.646;23.344;2024-01-15T10:15:05;93612.44;;;-0.61;100.00
12219;BME280;6172;42.646;23.344;2024-01-15T10:17:36;93626.41;;;-0.38;100.00
12219;BME280;6172;42.646;23.344;2024-01-15T10:20:08;93605.72;;;-0.41;100.00
12219;BME280;6172;42.646;23.344;2024-01-15T10:22:38;93597.28;;;0.11;100.00
12219;BME280;6172;42.646;23.344;2024-01-15T10:25:06;93590.16;;;0.36;100.00
12219;BME280;6172;42.646;23.344;2024-01-15T10:27:35;93585.41;;;0.98;100.00
12219;BME280;6172;42.646;23.344;2024-01-15T10:30:02;93557.50;;;1.30;100.00
12219;BME280;6172;42.646;23.344;2024-01-15T10:32:29;93567.81;;;1.14;100.00
12219;BME280;6172;42.646;23.344;2024-01-15T10:34:56;93563.50;;;0.71;100.00
12219;BME280;6172;42.646;23.344;2024-01-15T10:37:24;93572.72;;;0.77;100.00
12219;BME280;6172;42.646;23.344;2024-01-15T10:39:51;93575.41;;;0.84;100.00
12219;BME280;6172;42.646;23.344;2024-01-15T10:42:18;93574.25;;;0.81;100.00
12219;BME280;6172;42.646;23.344;2024-01-15T10:44:47;93569.34;;;1.22;100.00
12219;BME280;6172;42.646;23.344;2024-01-15T10:47:14;93556.72;;;1.54;100.00
12219;BME280;6172;42.646;23.344;2024-01-15T10:49:42;93568.94;;;2.22;100.00
12219;BME280;6172;42.646;23.344;2024-01-15T10:52:09;93556.28;;;2.19;96.87
12219;BME280;6172;42.646;23.344;2024-01-15T10:54:37;93542.09;;;1.94;97.94
12219;BME280;6172;42.646;23.344;2024-01-15T10:57:04;93540.13;;;2.26;94.74
12219;BME280;6172;42.646;23.344;2024-01-15T10:59:32;93546.63;;;2.35;91.85
12219;BME280;6172;42.646;23.344;2024-01-15T11:02:01;93538.78;;;2.76;88.06
12219;BME280;6172;42.646;23.344;2024-01-15T11:04:31;93547.47;;;2.08;89.50
12219;BME280;6172;42.646;23.344;2024-01-15T11:06:59;93532.06;;;2.26;88.61
12219;BME280;6172;42.646;23.344;2024-01-15T11:09:26;93519.38;;;2.33;85.74
12219;BME280;6172;42.646;23.344;2024-01-15T11:12:07;93527.19;;;1.68;91.71
12219;BME280;6172;42.646;23.344;2024-01-15T11:14:35;93515.09;;;2.43;89.26
12219;BME280;6172;42.646;23.344;2024-01-15T11:17:04;93511.34;;;2.19;86.27
12219;BME280;6172;42.646;23.344;2024-01-15T11:19:38;93520.19;;;3.02;87.44
12219;BME280;6172;42.646;23.344;2024-01-15T11:22:09;93507.88;;;3.08;81.91
12219;BME280;6172;42.646;23.344;2024-01-15T11:24:38;93523.75;;;3.88;77.22
12219;BME280;6172;42.646;23.344;2024-01-15T11:27:07;93505.38;;;4.20;72.54
12219;BME280;6172;42.646;23.344;2024-01-15T11:29:35;93490.59;;;4.35;70.95
12219;BME280;6172;42.646;23.344;2024-01-15T11:32:05;93505.50;;;4.43;69.40
12219;BME280;6172;42.646;23.344;2024-01-15T11:37:29;93488.19;;;4.74;65.71
12219;BME280;6172;42.646;23.344;2024-01-15T11:40:01;93489.25;;;5.33;65.00
12219;BME280;6172;42.646;23.344;2024-01-15T11:42:29;93475.91;;;4.96;62.58
12219;BME280;6172;42.646;23.344;2024-01-15T11:44:57;93483.53;;;5.54;62.11
12219;BME280;6172;42.646;23.344;2024-01-15T11:48:09;93469.50;;;5.13;61.20
12219;BME280;6172;42.646;23.344;2024-01-15T11:50:39;93485.09;;;5.02;63.05
12219;BME280;6172;42.646;23.344;2024-01-15T11:53:15;93488.13;;;5.57;62.29
12219;BME280;6172;42.646;23.344;2024-01-15T11:55:44;93462.63;;;5.08;63.29
12219;BME280;6172;42.646;23.344;2024-01-15T11:58:14;93466.25;;;5.25;63.32
12219;BME280;6172;42.646;23.344;2024-01-15T12:00:43;93451.28;;;5.90;66.44
12219;BME280;6172;42.646;23.344;2024-01-15T12:03:13;93450.41;;;6.35;63.17
12219;BME280;6172;42.646;23.344;2024-01-15T12:05:40;93451.59;;;6.54;59.91
12219;BME280;6172;42.646;23.344;2024-01-15T12:08:08;93454.03;;;5.63;59.92
12219;BME280;6172;42.646;23.344;2024-01-15T12:10:37;93446.63;;;5.21;61.83
12219;BME280;6172;42.646;23.344;2024-01-15T12:13:10;93434.91;;;5.31;62.63
12219;BME280;6172;42.646;23.344;2024-01-15T12:15:37;93429.38;;;5.38;62.53
12219;BME280;6172;42.646;23.344;2024-01-15T12:18:07;93443.63;;;4.89;64.58
12219;BME280;6172;42.646;23.344;2024-01-15T12:20:36;93429.22;;;4.72;65.54
12219;BME280;6172;42.646;23.344;2024-01-15T12:23:04;93422.47;;;4.27;68.64
12219;BME280;6172;42.646;23.344;2024-01-15T12:25:32;93433.16;;;4.64;70.03
12219;BME280;6172;42.646;23.344;2024-01-15T12:28:00;93436.47;;;4.49;69.01
12219;BME280;6172;42.646;23.344;2024-01-15T12:30:28;93457.47;;;4.31;72.09
12219;BME280;6172;42.646;23.344;2024-01-15T12:32:55;93448.59;;;4.34;72.46
12219;BME280;6172;42.646;23.344;2024-01-15T12:35:24;93444.53;;;4.19;73.33
12219;BME280;6172;42.646;23.344;2024-01-15T12:37:54;93429.06;;;4.26;74.21
12219;BME280;6172;42.646;23.344;2024-01-15T12:40:25;93437.91;;;3.90;77.31
12219;BME280;6172;42.646;23.344;2024-01-15T12:43:07;93423.28;;;4.24;76.12
12219;BME280;6172;42.646;23.344;2024-01-15T12:45:34;93428.13;;;4.03;76.66
12219;BME280;6172;42.646;23.344;2024-01-15T12:48:03;93425.63;;;3.85;78.33
12219;BME280;6172;42.646;23.344;2024-01-15T12:50:31;93420.47;;;3.98;78.37
12219;BME280;6172;42.646;23.344;2024-01-15T12:53:01;93428.31;;;3.85;77.86
12219;BME280;6172;42.646;23.344;2024-01-15T12:55:28;93415.34;;;4.10;76.65
12219;BME280;6172;42.646;23.344;2024-01-15T12:57:55;93432.50;;;3.90;79.62
12219;BME280;6172;42.646;23.344;2024-01-15T13:00:22;93418.66;;;3.88;78.62
12219;BME280;6172;42.646;23.344;2024-01-15T13:02:51;93416.88;;;3.74;80.07